Time;durP1;ratioP1;P1;durP2;ratioP2;P2;SDS_P1;SDS_P2;PMS_P1;PMS_P2;Temp;Humidity;BMP_temperature;BMP_pressure;BME280_temperature;BME280_humidity;BME280_pressure;Samples;Min_cycle;Max_cycle;Signal;HPM_P1;HPM_P2
2022/12/31 00:01:45;;;;;;;0.40;0.40;;;;;;;4.89;100.00;97964.19;5064566;28;20461;-69
2022/12/31 00:04:10;;;;;;;0.50;0.50;;;;;;;4.95;100.00;97976.88;5064487;28;20025;-70
2022/12/31 00:06:35;;;;;;;0.50;0.50;;;;;;;5.00;100.00;97983.66;5064367;28;20548;-70
2022/12/31 00:09:04;;;;;;;0.50;0.50;;;;;;;5.08;100.00;97989.44;5064596;28;20047;-70
2022/12/31 00:11:31;;;;;;;0.50;0.50;;;;;;;5.13;100.00;97995.31;5064397;28;20146;-68
2022/12/31 00:13:57;;;;;;;0.50;0.50;;;;;;;5.20;100.00;97996.00;5064382;28;20080;-68
2022/12/31 00:16:30;;;;;;;0.40;0.40;;;;;;;5.24;100.00;97991.63;5064040;28;20032;-67
2022/12/31 00:19:00;;;;;;;0.55;0.55;;;;;;;5.25;100.00;97988.19;5064202;28;20024;-69
2022/12/31 00:21:27;;;;;;;0.40;0.40;;;;;;;5.32;100.00;97977.69;5064470;28;20032;-70
2022/12/31 00:23:53;;;;;;;1.65;1.58;;;;;;;5.38;100.00;97989.56;5064267;28;20059;-69
2022/12/31 00:26:23;;;;;;;0.40;0.40;;;;;;;5.48;100.00;97974.69;5064216;28;20017;-69
2022/12/31 00:28:50;;;;;;;0.40;0.40;;;;;;;5.49;100.00;97991.84;5064032;28;20126;-71
2022/12/31 00:31:19;;;;;;;0.50;0.50;;;;;;;5.54;100.00;98005.41;5063902;28;20071;-68
2022/12/31 00:33:45;;;;;;;0.50;0.50;;;;;;;5.59;100.00;98002.75;5063712;28;20080;-67
2022/12/31 00:36:13;;;;;;;0.50;0.50;;;;;;;5.59;100.00;98010.47;5064031;28;20017;-71
2022/12/31 00:38:41;;;;;;;0.50;0.50;;;;;;;5.59;100.00;97997.59;5063751;28;20108;-68
2022/12/31 00:41:07;;;;;;;0.40;0.40;;;;;;;5.64;100.00;97985.41;5062572;28;20033;-69
2022/12/31 00:43:34;;;;;;;0.40;0.40;;;;;;;5.64;100.00;98011.16;5063953;28;20132;-69
2022/12/31 00:46:00;;;;;;;0.40;0.40;;;;;;;5.62;100.00;97997.50;5063434;28;20025;-69
2022/12/31 00:48:26;;;;;;;0.40;0.40;;;;;;;5.65;100.00;98006.88;5063424;28;20094;-69
2022/12/31 00:50:53;;;;;;;0.40;0.40;;;;;;;5.74;100.00;98031.50;5063673;28;20025;-69
2022/12/31 00:53:19;;;;;;;0.40;0.40;;;;;;;5.78;100.00;98028.81;5063508;28;20029;-69
2022/12/31 00:55:44;;;;;;;0.43;0.43;;;;;;;5.78;100.00;98040.84;5063770;28;20028;-70
2022/12/31 00:58:09;;;;;;;0.50;0.50;;;;;;;5.77;100.00;98046.88;5062231;28;20117;-69
2022/12/31 01:00:36;;;;;;;0.40;0.40;;;;;;;5.80;100.00;98051.94;5063792;28;20031;-69
2022/12/31 01:03:02;;;;;;;0.50;0.50;;;;;;;5.81;100.00;98056.22;5063428;28;20025;-68
2022/12/31 01:05:29;;;;;;;0.40;0.40;;;;;;;5.88;100.00;98062.06;5062413;28;20081;-68
2022/12/31 01:07:55;;;;;;;0.73;0.73;;;;;;;5.93;100.00;98062.75;5063880;28;20021;-70
2022/12/31 01:11:17;;;;;;;0.40;0.40;;;;;;;5.97;100.00;98069.53;5063781;28;20060;-70
2022/12/31 01:13:06;;;;;;;0.45;0.45;;;;;;;5.99;100.00;98088.34;5063461;28;20029;-70
2022/12/31 01:15:34;;;;;;;0.50;0.50;;;;;;;5.97;100.00;98077.25;5063620;28;20021;-70
2022/12/31 01:17:59;;;;;;;0.50;0.50;;;;;;;6.06;100.00;98078.75;5063521;28;20055;-70
2022/12/31 01:20:25;;;;;;;0.63;0.63;;;;;;;6.08;100.00;98110.47;5063683;28;20021;-70
2022/12/31 01:22:50;;;;;;;0.40;0.40;;;;;;;6.13;100.00;98111.19;5061963;28;20029;-70
2022/12/31 01:25:16;;;;;;;0.50;0.50;;;;;;;6.14;100.00;98133.50;5063634;28;20087;-70
2022/12/31 01:27:41;;;;;;;0.50;0.50;;;;;;;6.17;100.00;98127.41;5063466;28;20024;-70
2022/12/31 01:30:07;;;;;;;0.98;0.98;;;;;;;6.20;100.00;98143.63;5063772;28;20033;-70
2022/12/31 01:32:32;;;;;;;0.70;0.70;;;;;;;6.14;100.00;98132.63;5063575;28;20461;-70
2022/12/31 01:34:58;;;;;;;0.40;0.40;;;;;;;6.22;100.00;98153.91;5063294;28;20040;-70
2022/12/31 01:37:23;;;;;;;0.40;0.40;;;;;;;6.23;100.00;98177.94;5063584;28;20043;-71
2022/12/31 01:39:49;;;;;;;0.50;0.50;;;;;;;6.26;100.00;98167.53;5063500;28;20465;-70
2022/12/31 01:42:14;;;;;;;1.13;1.13;;;;;;;6.25;100.00;98181.31;5063365;28;20029;-70
2022/12/31 01:44:39;;;;;;;3.13;1.85;;;;;;;6.26;100.00;98183.84;5063565;28;20048;-70
2022/12/31 01:47:13;;;;;;;0.32;0.32;;;;;;;6.25;100.00;98182.16;5063267;28;20022;-70
2022/12/31 01:49:47;;;;;;;0.60;0.60;;;;;;;6.24;100.00;98195.09;5063269;28;20107;-69
2022/12/31 01:52:27;;;;;;;0.50;0.50;;;;;;;6.27;100.00;98195.00;5063514;28;20405;-69
2022/12/31 01:55:02;;;;;;;1.00;1.00;;;;;;;6.24;100.00;98200.22;5063399;28;20088;-70
2022/12/31 01:57:27;;;;;;;0.40;0.40;;;;;;;6.28;100.00;98217.28;5064174;28;20461;-71
2022/12/31 01:59:55;;;;;;;0.50;0.50;;;;;;;6.28;100.00;98207.84;5066870;28;20032;-71
2022/12/31 02:02:21;;;;;;;0.75;0.75;;;;;;;6.31;100.00;98217.25;5066728;28;20024;-70
2022/12/31 02:04:48;;;;;;;0.50;0.50;;;;;;;6.29;100.00;98219.00;5066562;28;20025;-72
2022/12/31 02:07:14;;;;;;;0.50;0.50;;;;;;;6.31;100.00;98227.56;5065555;28;20012;-70
2022/12/31 02:09:41;;;;;;;0.40;0.40;;;;;;;6.27;100.00;98215.63;5066538;28;20053;-70
2022/12/31 02:12:08;;;;;;;0.50;0.50;;;;;;;6.24;100.00;98219.13;5066604;28;20078;-70
2022/12/31 02:14:38;;;;;;;0.47;0.47;;;;;;;6.17;100.00;98223.59;5066846;28;20040;-69
2022/12/31 02:17:06;;;;;;;0.50;0.50;;;;;;;6.15;100.00;98232.25;5066245;28;20033;-70
2022/12/31 02:19:50;;;;;;;0.50;0.50;;;;;;;6.13;100.00;98239.16;5066373;28;20100;-70
2022/12/31 02:22:53;;;;;;;0.50;0.50;;;;;;;6.11;100.00;98230.63;5066557;28;20029;-71
2022/12/31 02:25:36;;;;;;;0.60;0.60;;;;;;;6.10;100.00;98244.41;5066652;28;20021;-70
2022/12/31 02:28:35;;;;;;;0.43;0.43;;;;;;;6.11;100.00;98244.34;5066433;28;20017;-71
2022/12/31 02:31:10;;;;;;;0.50;0.50;;;;;;;6.15;100.00;98245.13;5066457;28;20021;-70
2022/12/31 02:34:01;;;;;;;0.50;0.50;;;;;;;6.15;100.00;98240.81;5066096;28;20097;-70
2022/12/31 02:36:35;;;;;;;0.50;0.50;;;;;;;6.13;100.00;98259.78;5066321;28;20037;-69
2022/12/31 02:39:02;;;;;;;0.40;0.40;;;;;;;6.13;100.00;98252.03;5065089;28;20025;-69
2022/12/31 02:44:24;;;;;;;0.50;0.50;;;;;;;6.23;100.00;98273.28;5066340;28;20086;-70
2022/12/31 02:47:14;;;;;;;0.50;0.50;;;;;;;6.26;100.00;98255.16;5065819;28;20388;-70
2022/12/31 02:50:04;;;;;;;0.40;0.40;;;;;;;6.31;100.00;98258.47;5054158;28;20128;-69
2022/12/31 02:53:08;;;;;;;0.50;0.50;;;;;;;6.34;100.00;98266.13;5066144;28;20043;-68
2022/12/31 02:55:57;;;;;;;0.50;0.50;;;;;;;6.35;100.00;98274.69;5065866;28;20041;-69
2022/12/31 03:04:32;;;;;;;0.50;0.50;;;;;;;6.36;100.00;98266.09;5065800;28;20039;-70
2022/12/31 03:07:19;;;;;;;0.95;0.95;;;;;;;6.33;100.00;98274.72;5064369;28;20021;-68
2022/12/31 03:09:45;;;;;;;0.47;0.47;;;;;;;6.36;100.00;98266.91;5064071;28;20043;-69
2022/12/31 03:14:57;;;;;;;0.40;0.40;;;;;;;6.32;100.00;98260.16;5065943;28;20051;-68
2022/12/31 03:17:23;;;;;;;6.95;6.32;;;;;;;6.32;100.00;98255.00;5065306;28;20104;-71
2022/12/31 03:22:35;;;;;;;11.57;3.30;;;;;;;6.31;100.00;98263.63;5065623;28;20036;-68
2022/12/31 03:27:45;;;;;;;0.50;0.50;;;;;;;6.26;100.00;98262.88;5065094;28;20036;-69
2022/12/31 03:30:12;;;;;;;0.50;0.50;;;;;;;6.34;100.00;98271.28;5065607;28;20077;-68
2022/12/31 03:32:38;;;;;;;0.50;0.50;;;;;;;6.34;100.00;98262.69;5065310;28;20016;-68
2022/12/31 03:35:05;;;;;;;0.50;0.50;;;;;;;6.38;100.00;98280.63;5064973;28;20108;-67
2022/12/31 03:37:30;;;;;;;1.23;1.17;;;;;;;6.39;100.00;98281.47;5065133;28;20138;-66
2022/12/31 03:39:56;;;;;;;1.45;1.38;;;;;;;6.40;100.00;98278.84;5064889;28;20033;-68
2022/12/31 03:42:21;;;;;;;0.50;0.50;;;;;;;6.40;100.00;98284.00;5064965;28;20021;-67
2022/12/31 03:44:47;;;;;;;0.50;0.50;;;;;;;6.47;99.84;98289.00;5064838;28;20052;-67
2022/12/31 03:47:12;;;;;;;0.50;0.50;;;;;;;6.51;100.00;98290.59;5064702;28;20025;-67
2022/12/31 03:49:37;;;;;;;0.50;0.50;;;;;;;6.49;99.93;98287.22;5063298;28;20049;-68
2022/12/31 03:52:05;;;;;;;0.50;0.50;;;;;;;6.49;100.00;98289.78;5063773;28;20468;-66
2022/12/31 03:54:31;;;;;;;3.40;2.90;;;;;;;6.51;99.65;98294.03;5064933;28;20389;-67
2022/12/31 03:56:56;;;;;;;0.50;0.50;;;;;;;6.49;99.71;98288.06;5064754;28;20523;-65
2022/12/31 03:59:21;;;;;;;4.18;2.58;;;;;;;6.50;99.39;98301.81;5064715;28;20041;-65
2022/12/31 04:01:47;;;;;;;0.50;0.50;;;;;;;6.42;99.10;98269.31;5064691;28;20032;-66
2022/12/31 04:04:12;;;;;;;3.33;3.13;;;;;;;6.53;99.30;98304.31;5064584;28;20052;-66
2022/12/31 04:06:38;;;;;;;0.50;0.50;;;;;;;6.51;99.24;98311.22;5064757;28;20092;-64
2022/12/31 04:09:03;;;;;;;0.40;0.40;;;;;;;6.50;99.34;98309.53;5064525;28;20405;-65
2022/12/31 04:11:28;;;;;;;0.50;0.50;;;;;;;6.51;99.03;98300.91;5064632;28;20041;-65
2022/12/31 04:13:54;;;;;;;0.50;0.50;;;;;;;6.51;99.13;98306.94;5064720;28;20021;-67
2022/12/31 04:16:19;;;;;;;0.47;0.47;;;;;;;6.50;99.11;98306.97;5062862;28;20068;-64
2022/12/31 04:18:44;;;;;;;0.50;0.50;;;;;;;6.56;99.08;98328.28;5064054;28;20029;-64
2022/12/31 04:21:10;;;;;;;0.40;0.40;;;;;;;6.50;98.52;98325.84;5063954;28;20108;-65
2022/12/31 04:23:35;;;;;;;0.43;0.43;;;;;;;6.58;98.38;98338.56;5064264;28;20016;-65
2022/12/31 04:26:01;;;;;;;0.50;0.50;;;;;;;6.56;98.29;98337.75;5064366;28;20017;-64
2022/12/31 04:28:26;;;;;;;1.02;1.02;;;;;;;6.56;98.03;98335.16;5064281;28;20051;-64
2022/12/31 04:30:51;;;;;;;1.05;1.05;;;;;;;6.58;98.21;98341.13;5064153;28;20016;-66
2022/12/31 04:33:17;;;;;;;0.40;0.40;;;;;;;6.48;98.25;98321.63;5063932;28;20117;-65
2022/12/31 04:35:42;;;;;;;0.50;0.50;;;;;;;6.55;97.72;98348.94;5064158;28;20035;-65
2022/12/31 04:38:08;;;;;;;0.50;0.50;;;;;;;6.55;97.66;98343.78;5062751;28;20029;-65
2022/12/31 04:40:33;;;;;;;0.50;0.50;;;;;;;6.58;97.71;98346.28;5062825;28;20036;-66
2022/12/31 04:42:59;;;;;;;0.50;0.50;;;;;;;6.43;97.56;98319.16;5063972;28;20032;-66
2022/12/31 04:45:24;;;;;;;0.50;0.50;;;;;;;6.59;97.31;98360.00;5063989;28;20475;-67
2022/12/31 04:47:49;;;;;;;0.43;0.43;;;;;;;6.62;96.71;98354.78;5064051;28;20369;-67
2022/12/31 04:50:15;;;;;;;0.60;0.60;;;;;;;6.67;97.32;98365.84;5063785;28;20053;-66
2022/12/31 04:52:40;;;;;;;0.50;0.50;;;;;;;6.68;97.53;98360.63;5063850;28;20353;-66
2022/12/31 04:55:06;;;;;;;0.50;0.50;;;;;;;6.63;97.12;98361.66;5062679;28;20021;-69
2022/12/31 04:57:31;;;;;;;0.47;0.47;;;;;;;6.66;96.78;98377.88;5063562;28;20017;-68
2022/12/31 04:59:57;;;;;;;0.50;0.50;;;;;;;6.71;97.47;98375.16;5064021;28;20021;-66
2022/12/31 05:02:22;;;;;;;0.50;0.50;;;;;;;6.72;97.26;98381.19;5063802;28;20141;-68
2022/12/31 05:04:48;;;;;;;0.50;0.50;;;;;;;6.74;97.13;98384.59;5063728;28;20577;-68
2022/12/31 05:07:13;;;;;;;0.50;0.50;;;;;;;6.76;97.10;98383.66;5063952;28;20021;-69
2022/12/31 05:09:38;;;;;;;0.40;0.40;;;;;;;6.73;97.23;98383.72;5063929;28;20051;-68
2022/12/31 05:12:04;;;;;;;0.50;0.50;;;;;;;6.70;96.75;98383.81;5063756;28;20036;-68
2022/12/31 05:14:29;;;;;;;0.50;0.50;;;;;;;6.71;96.38;98400.13;5063833;28;20028;-70
2022/12/31 05:16:55;;;;;;;0.40;0.40;;;;;;;6.65;96.13;98390.81;5063789;28;20428;-67
2022/12/31 05:19:21;;;;;;;1.70;1.60;;;;;;;6.65;95.48;98404.53;5063436;28;20316;-70
2022/12/31 05:22:27;;;;;;;0.40;0.40;;;;;;;6.66;95.47;98402.81;5063843;28;20032;-71
2022/12/31 05:24:32;;;;;;;0.40;0.40;;;;;;;6.66;95.83;98403.66;5063556;28;20075;-71
2022/12/31 05:26:58;;;;;;;1.90;1.80;;;;;;;6.70;95.37;98401.84;5063841;28;20021;-71
2022/12/31 05:29:23;;;;;;;0.47;0.47;;;;;;;6.69;95.38;98403.56;5063570;28;20029;-71
2022/12/31 05:31:49;;;;;;;0.50;0.50;;;;;;;6.71;95.04;98406.13;5063867;28;20052;-70
2022/12/31 05:34:14;;;;;;;1.95;1.85;;;;;;;6.71;94.95;98405.28;5067217;28;20421;-71
2022/12/31 05:36:40;;;;;;;0.40;0.40;;;;;;;6.73;94.71;98403.50;5067374;28;20016;-71
2022/12/31 05:39:05;;;;;;;0.50;0.50;;;;;;;6.77;94.67;98402.56;5067409;28;20454;-71
2022/12/31 05:41:30;;;;;;;0.50;0.50;;;;;;;6.74;95.37;98384.59;5067621;28;20021;-69
2022/12/31 05:43:56;;;;;;;29.95;8.68;;;;;;;6.74;94.80;98393.13;5065958;28;20024;-72
2022/12/31 05:46:21;;;;;;;0.50;0.50;;;;;;;6.77;94.61;98393.06;5067183;28;20044;-70
2022/12/31 05:48:46;;;;;;;0.55;0.55;;;;;;;6.77;94.52;98399.97;5066893;28;20064;-71
2022/12/31 05:51:12;;;;;;;0.50;0.50;;;;;;;6.77;94.09;98397.41;5067347;28;20017;-73
2022/12/31 05:53:37;;;;;;;0.50;0.50;;;;;;;6.77;94.16;98397.41;5066940;28;20611;-72
2022/12/31 05:56:03;;;;;;;0.55;0.55;;;;;;;6.78;94.35;98399.06;5067055;28;20033;-71
2022/12/31 05:58:28;;;;;;;0.50;0.50;;;;;;;6.79;94.22;98382.72;5066910;28;20025;-72
2022/12/31 06:00:53;;;;;;;0.50;0.50;;;;;;;6.81;93.71;98393.84;5067135;28;20384;-72
2022/12/31 06:03:19;;;;;;;0.50;0.50;;;;;;;6.80;93.86;98384.41;5065317;28;20028;-70
2022/12/31 06:05:44;;;;;;;0.50;0.50;;;;;;;6.83;93.72;98404.97;5066948;28;20100;-72
2022/12/31 06:08:11;;;;;;;8.07;6.82;;;;;;;6.80;93.64;98400.75;5066730;28;20028;-71
2022/12/31 06:10:36;;;;;;;0.60;0.60;;;;;;;6.81;93.56;98401.56;5067035;28;20099;-71
2022/12/31 06:13:02;;;;;;;0.60;0.60;;;;;;;6.81;94.00;98410.19;5066724;28;20028;-71
2022/12/31 06:15:28;;;;;;;0.40;0.40;;;;;;;6.80;93.51;98408.50;5066732;28;20017;-72
2022/12/31 06:17:53;;;;;;;0.50;0.50;;;;;;;6.78;93.78;98415.41;5066526;28;20089;-71
2022/12/31 06:20:18;;;;;;;0.50;0.50;;;;;;;6.84;93.34;98414.41;5066439;28;20021;-73
2022/12/31 06:22:44;;;;;;;0.50;0.50;;;;;;;6.79;93.45;98418.81;5066668;28;20032;-73
2022/12/31 06:25:09;;;;;;;0.47;0.47;;;;;;;6.78;93.18;98424.88;5066488;28;20036;-73
2022/12/31 06:27:34;;;;;;;35.67;3.60;;;;;;;6.75;92.97;98424.94;5066255;28;20027;-72
2022/12/31 06:30:00;;;;;;;0.50;0.50;;;;;;;6.72;92.49;98423.31;5066563;28;20025;-74
2022/12/31 06:32:25;;;;;;;0.90;0.90;;;;;;;6.68;93.06;98432.84;5066273;28;20040;-72
2022/12/31 06:34:51;;;;;;;0.40;0.40;;;;;;;6.69;93.02;98439.69;5066252;28;20166;-72
2022/12/31 06:37:16;;;;;;;0.50;0.50;;;;;;;6.70;92.62;98463.75;5066421;28;20434;-72
2022/12/31 06:39:41;;;;;;;0.50;0.50;;;;;;;6.62;92.45;98463.94;5065024;28;20067;-72
2022/12/31 06:42:07;;;;;;;0.50;0.50;;;;;;;6.64;92.22;98467.34;5066067;28;20048;-72
2022/12/31 06:44:32;;;;;;;0.50;0.50;;;;;;;6.60;92.46;98457.94;5065952;28;20028;-72
2022/12/31 06:46:58;;;;;;;0.70;0.70;;;;;;;6.54;91.88;98471.84;5065983;28;20028;-71
2022/12/31 06:49:23;;;;;;;1.02;1.02;;;;;;;6.56;92.21;98485.56;5065766;28;20064;-73
2022/12/31 06:51:48;;;;;;;0.50;0.50;;;;;;;6.54;92.05;98478.72;5064961;28;20028;-73
2022/12/31 06:54:14;;;;;;;3.60;1.75;;;;;;;6.54;92.12;98464.13;5066069;28;20027;-72
2022/12/31 06:56:40;;;;;;;0.40;0.40;;;;;;;6.57;92.46;98470.91;5065902;28;20108;-72
2022/12/31 06:59:14;;;;;;;1.00;1.00;;;;;;;6.52;92.23;98473.59;5065720;28;20085;-73
2022/12/31 07:01:47;;;;;;;0.50;0.50;;;;;;;6.60;92.20;98480.34;5064512;28;20021;-72
2022/12/31 07:04:56;;;;;;;0.63;0.63;;;;;;;6.60;92.60;98491.47;5065642;28;20036;-74
2022/12/31 07:07:30;;;;;;;0.40;0.40;;;;;;;6.63;92.19;98473.34;5065401;28;20025;-73
2022/12/31 07:10:21;;;;;;;0.40;0.40;;;;;;;6.63;92.08;98488.81;5065874;28;20021;-72
2022/12/31 07:13:02;;;;;;;1.40;1.30;;;;;;;6.60;92.20;98483.72;5065522;28;20103;-73
2022/12/31 07:15:50;;;;;;;0.60;0.60;;;;;;;6.61;nan;98488.03;5064446;28;20049;-71
2022/12/31 07:18:25;;;;;;;0.50;0.50;;;;;;;6.60;92.24;98501.78;5065359;28;20097;-72
2022/12/31 07:20:50;;;;;;;0.40;0.40;;;;;;;6.62;91.91;98491.44;5064154;28;20130;-72
2022/12/31 07:23:16;;;;;;;0.40;0.40;;;;;;;6.62;91.94;98500.03;5065274;28;20556;-72
2022/12/31 07:25:53;;;;;;;0.60;0.60;;;;;;;6.53;91.59;98506.22;5065521;28;20029;-73
2022/12/31 07:28:49;;;;;;;1.40;1.40;;;;;;;6.59;91.87;98520.72;5064666;28;20099;-72
2022/12/31 07:31:49;;;;;;;0.50;0.50;;;;;;;6.55;91.89;98499.31;5065226;28;20029;-71
2022/12/31 07:34:46;;;;;;;0.40;0.40;;;;;;;6.56;91.94;98493.28;5053178;28;20044;-72
2022/12/31 07:37:26;;;;;;;8.00;4.88;;;;;;;6.52;92.11;98504.53;5065041;28;20098;-71
2022/12/31 07:40:02;;;;;;;0.50;0.50;;;;;;;6.50;91.82;98505.47;5064977;28;20035;-72
2022/12/31 07:43:15;;;;;;;0.50;0.50;;;;;;;6.47;91.85;98500.38;5063487;28;20048;-71
2022/12/31 07:45:57;;;;;;;0.50;0.50;;;;;;;6.47;92.19;98515.84;5042421;28;20037;-71
2022/12/31 07:48:27;;;;;;;;;;;;;;;6.48;91.66;98540.75;5042680;28;20047;-70
2022/12/31 07:50:55;;;;;;;0.50;0.50;;;;;;;6.45;92.34;98536.50;5042422;28;19908;-72
2022/12/31 07:53:21;;;;;;;0.40;0.40;;;;;;;6.45;92.42;98541.66;5042601;28;20056;-70
2022/12/31 07:55:51;;;;;;;0.50;0.50;;;;;;;6.45;92.61;98529.59;5041528;28;20033;-71
2022/12/31 07:58:31;;;;;;;0.40;0.40;;;;;;;6.52;92.69;98539.78;5042104;28;20042;-73
2022/12/31 08:00:58;;;;;;;0.43;0.43;;;;;;;6.51;92.42;98527.78;5042293;28;20030;-72
2022/12/31 08:03:50;;;;;;;0.45;0.45;;;;;;;6.57;92.70;98540.53;5042295;28;20044;-72
2022/12/31 08:06:40;;;;;;;0.50;0.50;;;;;;;6.59;92.40;98546.50;5042304;28;20068;-73
2022/12/31 08:09:17;;;;;;;0.40;0.40;;;;;;;6.61;92.37;98543.91;5042078;28;20562;-73
2022/12/31 08:12:00;;;;;;;17.08;4.57;;;;;;;6.58;92.66;98539.66;5042067;28;20033;-71
2022/12/31 08:14:27;;;;;;;0.80;0.80;;;;;;;6.62;92.01;98555.91;5025428;28;20513;-71
2022/12/31 08:16:53;;;;;;;0.82;0.82;;;;;;;6.62;92.28;98541.28;5041889;28;20038;-71
2022/12/31 08:19:24;;;;;;;0.50;0.50;;;;;;;6.61;92.33;98538.75;5041757;28;20160;-72
2022/12/31 08:22:23;;;;;;;0.40;0.40;;;;;;;6.60;92.02;98557.69;5053467;28;20040;-71
2022/12/31 08:25:01;;;;;;;0.40;0.40;;;;;;;6.60;92.09;98558.50;5064371;28;20354;-72
2022/12/31 08:27:26;;;;;;;6.82;6.18;;;;;;;6.57;91.97;98549.13;5064266;28;20104;-71
2022/12/31 08:29:59;;;;;;;0.50;0.50;;;;;;;6.58;92.00;98549.97;5064305;28;20040;-72
2022/12/31 08:32:34;;;;;;;0.50;0.50;;;;;;;6.54;92.23;98545.75;5064356;28;20099;-71
2022/12/31 08:35:26;;;;;;;0.50;0.50;;;;;;;6.58;91.71;98549.97;5063910;28;20122;-71
2022/12/31 08:38:05;;;;;;;0.60;0.60;;;;;;;6.58;91.77;98560.28;5062689;28;20017;-71
2022/12/31 08:40:37;;;;;;;0.50;0.50;;;;;;;6.54;91.74;98566.38;5064105;28;20100;-71
2022/12/31 08:43:10;;;;;;;0.55;0.55;;;;;;;6.57;91.85;98574.06;5062734;28;20044;-69
2022/12/31 08:45:48;;;;;;;0.50;0.50;;;;;;;6.53;91.88;98567.28;5064210;28;20025;-71
2022/12/31 08:48:37;;;;;;;0.50;0.50;;;;;;;6.56;92.01;98574.94;5063876;28;20508;-73
2022/12/31 08:51:04;;;;;;;1.17;1.17;;;;;;;6.48;92.12;98564.78;5064058;28;20093;-71
2022/12/31 08:53:29;;;;;;;0.50;0.50;;;;;;;6.52;92.31;98571.56;5062585;28;20028;-70
2022/12/31 08:56:12;;;;;;;0.50;0.50;;;;;;;6.52;92.39;98583.59;5064015;28;20020;-71
2022/12/31 08:59:02;;;;;;;0.50;0.50;;;;;;;6.49;92.34;98583.66;5062574;28;20097;-72
2022/12/31 09:01:37;;;;;;;40.13;4.68;;;;;;;6.51;92.42;98590.50;5064157;28;20017;-74
2022/12/31 09:04:20;;;;;;;0.98;0.98;;;;;;;6.49;92.06;98589.69;5062321;28;20025;-72
2022/12/31 09:07:01;;;;;;;0.50;0.50;;;;;;;6.44;92.59;98584.63;5065440;28;20021;-72
2022/12/31 09:09:39;;;;;;;0.50;0.50;;;;;;;6.50;92.84;98588.78;5066928;28;20035;-72
2022/12/31 09:12:21;;;;;;;0.47;0.47;;;;;;;6.47;92.81;98598.34;5066596;28;20087;-73
2022/12/31 09:14:53;;;;;;;0.95;0.95;;;;;;;6.48;93.17;98597.44;5068154;28;20028;-70
2022/12/31 09:17:33;;;;;;;0.50;0.50;;;;;;;6.47;92.65;98594.00;5067685;28;20027;-73
2022/12/31 09:19:59;;;;;;;1.05;1.00;;;;;;;6.48;93.04;98581.97;5067774;28;20224;-69
2022/12/31 09:22:25;;;;;;;0.40;0.40;;;;;;;6.47;92.77;98585.47;5067812;28;20155;-73
2022/12/31 09:24:51;;;;;;;0.50;0.50;;;;;;;6.55;93.03;98586.16;5067892;28;20108;-72
2022/12/31 09:27:28;;;;;;;0.50;0.50;;;;;;;6.57;93.09;98585.22;5067714;28;20047;-73
2022/12/31 09:30:06;;;;;;;0.50;0.50;;;;;;;6.56;93.09;98580.97;5067586;28;20051;-71
2022/12/31 09:32:35;;;;;;;0.47;0.47;;;;;;;6.66;92.75;98585.91;5067456;28;20086;-73
2022/12/31 09:35:10;;;;;;;0.40;0.40;;;;;;;6.65;93.07;98584.19;5067272;28;20036;-73
2022/12/31 09:37:47;;;;;;;0.40;0.40;;;;;;;6.67;92.72;98570.41;5067266;28;20380;-71
2022/12/31 09:40:32;;;;;;;0.50;0.50;;;;;;;6.64;92.40;98574.78;5067427;28;20040;-71
2022/12/31 09:43:16;;;;;;;0.73;0.73;;;;;;;6.69;92.21;98588.44;5066107;28;20016;-72
2022/12/31 09:45:54;;;;;;;0.50;0.50;;;;;;;6.69;92.47;98602.16;5067223;28;20017;-71
2022/12/31 09:48:40;;;;;;;0.50;0.50;;;;;;;6.70;92.38;98608.16;5067008;28;20052;-71
2022/12/31 09:51:12;;;;;;;1.20;1.20;;;;;;;6.66;92.05;98607.38;5067201;28;20036;-71
2022/12/31 09:53:46;;;;;;;0.50;0.50;;;;;;;6.67;92.45;98603.94;5067128;28;20107;-71
2022/12/31 09:56:18;;;;;;;0.50;0.50;;;;;;;6.63;92.15;98622.91;5067262;28;20039;-72
2022/12/31 09:58:52;;;;;;;0.50;0.50;;;;;;;6.61;92.06;98616.97;5066757;28;20477;-71
2022/12/31 10:02:00;;;;;;;0.50;0.50;;;;;;;6.61;92.10;98616.97;5066795;28;20387;-71
2022/12/31 10:04:25;;;;;;;0.60;0.60;;;;;;;6.60;91.88;98604.94;5066437;28;20025;-71
2022/12/31 10:07:04;;;;;;;0.40;0.40;;;;;;;6.63;91.94;98610.00;5065452;28;20094;-71
2022/12/31 10:09:48;;;;;;;0.50;0.50;;;;;;;6.60;92.22;98607.50;5067060;28;20036;-72
2022/12/31 10:12:41;;;;;;;7.97;2.45;;;;;;;6.57;91.87;98615.31;5065401;28;20032;-70
2022/12/31 10:15:30;;;;;;;0.43;0.43;;;;;;;6.51;91.96;98612.84;5066518;28;20084;-72
2022/12/31 10:18:28;;;;;;;0.45;0.45;;;;;;;6.49;92.12;98605.16;5065532;28;20021;-70
2022/12/31 10:21:15;;;;;;;0.47;0.47;;;;;;;6.49;92.52;98618.03;5066567;28;20025;-72
2022/12/31 10:23:59;;;;;;;3.35;3.15;;;;;;;6.52;92.82;98617.13;5055309;28;20051;-72
2022/12/31 10:27:00;;;;;;;0.50;0.50;;;;;;;6.51;92.94;98612.84;5066556;28;20135;-72
2022/12/31 10:29:59;;;;;;;0.50;0.50;;;;;;;6.46;92.95;98620.69;5043825;28;20033;-72
2022/12/31 10:32:34;;;;;;;0.50;0.50;;;;;;;6.46;93.23;98623.25;5043675;28;20025;-72
2022/12/31 10:35:29;;;;;;;0.50;0.50;;;;;;;6.49;93.08;98623.19;5043386;28;20191;-72
2022/12/31 10:37:55;;;;;;;0.40;0.40;;;;;;;6.51;93.42;98625.75;5043613;28;20053;-70
2022/12/31 10:40:41;;;;;;;0.50;0.50;;;;;;;6.51;93.58;98624.03;5027257;28;20068;-73
2022/12/31 10:43:33;;;;;;;0.50;0.50;;;;;;;6.44;93.17;98625.88;5043556;28;20048;-72
2022/12/31 10:46:01;;;;;;;1.80;1.75;;;;;;;6.48;93.37;98628.38;5043510;28;20428;-73
2022/12/31 10:48:57;;;;;;;0.40;0.40;;;;;;;6.43;93.43;98631.91;5043208;28;20060;-73
2022/12/31 10:51:52;;;;;;;2.85;1.95;;;;;;;6.38;93.12;98628.56;5043742;28;20036;-72
2022/12/31 10:54:40;;;;;;;1.20;1.15;;;;;;;6.40;93.49;98625.97;5043514;28;20025;-72
2022/12/31 10:57:27;;;;;;;0.40;0.40;;;;;;;6.40;93.56;98624.25;5042944;28;20071;-72
2022/12/31 11:00:19;;;;;;;0.47;0.47;;;;;;;6.36;93.54;98625.16;5043450;28;20468;-73
2022/12/31 11:03:30;;;;;;;0.60;0.60;;;;;;;6.47;93.70;98622.38;5048484;28;20067;-72
2022/12/31 11:06:32;;;;;;;0.50;0.50;;;;;;;6.50;94.02;98629.22;5065645;28;20080;-71
2022/12/31 11:09:18;;;;;;;0.50;0.50;;;;;;;6.49;93.94;98625.78;5064551;28;20032;-72
2022/12/31 11:12:25;;;;;;;0.40;0.40;;;;;;;6.53;94.10;98629.16;5065697;28;20029;-72
2022/12/31 11:14:58;;;;;;;0.50;0.50;;;;;;;6.52;93.83;98627.44;5042601;28;20040;-73
2022/12/31 11:17:35;;;;;;;0.80;0.80;;;;;;;6.48;93.91;98626.66;5026537;28;20025;-74
2022/12/31 11:20:09;;;;;;;2.70;2.55;;;;;;;6.52;93.71;98609.38;5042811;28;20120;-73
2022/12/31 11:22:53;;;;;;;1.23;1.23;;;;;;;6.54;94.13;98615.38;5043213;28;20029;-73
2022/12/31 11:25:59;;;;;;;0.50;0.50;;;;;;;6.53;94.41;98611.09;5042798;28;20039;-73
2022/12/31 11:28:33;;;;;;;0.50;0.50;;;;;;;6.51;94.04;98602.53;5031583;28;20108;-72
2022/12/31 11:31:05;;;;;;;0.50;0.50;;;;;;;6.49;94.09;98617.19;5041504;28;20377;-72
2022/12/31 11:33:38;;;;;;;0.60;0.60;;;;;;;6.44;94.16;98619.84;5042736;28;20096;-74
2022/12/31 11:36:06;;;;;;;0.40;0.40;;;;;;;6.44;94.10;98627.59;5042618;28;20145;-72
2022/12/31 11:38:51;;;;;;;0.40;0.40;;;;;;;6.43;94.37;98619.03;5042789;28;20042;-73
2022/12/31 11:41:35;;;;;;;0.90;0.90;;;;;;;6.41;93.92;98615.63;5042495;28;20037;-73
2022/12/31 11:44:38;;;;;;;0.50;0.50;;;;;;;6.40;94.14;98611.38;5042304;28;20029;-74
2022/12/31 11:47:33;;;;;;;0.73;0.73;;;;;;;6.39;93.94;98607.06;5064970;28;20060;-72
2022/12/31 11:50:16;;;;;;;0.50;0.50;;;;;;;6.34;94.04;98611.50;5064535;28;20103;-74
2022/12/31 11:53:17;;;;;;;0.40;0.40;;;;;;;6.32;94.10;98610.66;5064842;28;20025;-71
2022/12/31 11:55:50;;;;;;;0.50;0.50;;;;;;;6.31;94.35;98602.06;5065004;28;20070;-72
2022/12/31 11:58:19;;;;;;;0.40;0.40;;;;;;;6.32;94.40;98608.09;5063226;28;20036;-70
2022/12/31 12:01:14;;;;;;;2.45;2.35;;;;;;;6.34;94.57;98603.75;5064657;28;20123;-70
2022/12/31 12:03:42;;;;;;;0.50;0.50;;;;;;;6.32;94.35;98603.78;5064270;28;20293;-71
2022/12/31 12:06:14;;;;;;;0.60;0.60;;;;;;;6.34;94.55;98601.19;5064320;28;20025;-71
2022/12/31 12:08:41;;;;;;;0.50;0.50;;;;;;;6.36;94.53;98609.72;5064475;28;20032;-74
2022/12/31 12:11:17;;;;;;;0.50;0.50;;;;;;;6.39;94.80;98621.69;5063232;28;20078;-73
2022/12/31 12:13:43;;;;;;;0.60;0.60;;;;;;;6.42;94.36;98616.50;5064451;28;20025;-73
2022/12/31 12:16:08;;;;;;;21.95;3.22;;;;;;;6.38;94.60;98610.53;5064526;28;20029;-73
2022/12/31 12:19:05;;;;;;;0.43;0.43;;;;;;;6.42;94.47;98632.78;5064147;28;20462;-72
2022/12/31 12:21:31;;;;;;;0.50;0.50;;;;;;;6.47;94.60;98624.94;5059691;28;20033;-73
2022/12/31 12:24:00;;;;;;;0.50;0.50;;;;;;;6.47;94.56;98630.09;5064251;28;20027;-71
2022/12/31 12:26:41;;;;;;;0.40;0.40;;;;;;;6.48;94.86;98639.56;5064245;28;20033;-72